createdAt,value
2018-08-08T00:02:18.359Z,20.80
2018-08-08T00:04:46.777Z,20.80
2018-08-08T00:07:15.516Z,20.80
2018-08-08T00:09:44.134Z,20.80
2018-08-08T00:12:12.826Z,20.80
2018-08-08T00:14:41.427Z,20.70
2018-08-08T00:17:09.732Z,20.70
2018-08-08T00:19:40.128Z,20.70
2018-08-08T00:22:08.581Z,20.70
2018-08-08T00:24:37.061Z,20.60
2018-08-08T00:27:05.894Z,20.60
2018-08-08T00:29:34.240Z,20.60
2018-08-08T00:32:02.774Z,20.60
2018-08-08T00:34:31.174Z,20.50
2018-08-08T00:36:59.934Z,20.50
2018-08-08T00:39:28.296Z,20.50
2018-08-08T00:41:56.793Z,20.50
2018-08-08T00:44:25.091Z,20.50
2018-08-08T00:46:53.685Z,20.50
2018-08-08T00:49:21.957Z,20.50
2018-08-08T00:51:50.294Z,20.50
2018-08-08T00:54:18.898Z,20.50
2018-08-08T00:56:47.294Z,20.50
2018-08-08T00:59:15.783Z,20.50
2018-08-08T01:01:46.928Z,20.50
2018-08-08T01:04:15.469Z,20.50
2018-08-08T01:06:44.049Z,20.50
2018-08-08T01:09:13.493Z,20.50
2018-08-08T01:11:42.596Z,20.50
2018-08-08T01:14:11.202Z,20.50
2018-08-08T01:16:39.791Z,20.50
2018-08-08T01:19:08.318Z,20.50
2018-08-08T01:21:36.896Z,20.50
2018-08-08T01:24:05.521Z,20.50
2018-08-08T01:26:34.621Z,20.50
2018-08-08T01:29:09.473Z,20.50
2018-08-08T01:31:37.978Z,20.50
2018-08-08T01:34:06.590Z,20.60
2018-08-08T01:36:35.087Z,20.50
2018-08-08T01:39:03.682Z,20.50
2018-08-08T01:41:33.015Z,20.60
2018-08-08T01:44:01.499Z,20.60
2018-08-08T01:46:30.119Z,20.60
2018-08-08T01:48:58.579Z,20.60
2018-08-08T01:51:27.174Z,20.60
2018-08-08T01:53:55.704Z,20.60
2018-08-08T01:56:24.414Z,20.60
2018-08-08T01:58:52.916Z,20.60
2018-08-08T02:01:21.439Z,20.60
2018-08-08T02:03:49.941Z,20.60
2018-08-08T02:06:18.409Z,20.60
2018-08-08T02:08:46.623Z,20.60
2018-08-08T02:11:15.143Z,20.60
2018-08-08T02:13:44.568Z,20.60
2018-08-08T02:16:13.059Z,20.60
2018-08-08T02:18:41.444Z,20.60
2018-08-08T02:21:10.164Z,20.60
2018-08-08T02:23:38.544Z,20.60
2018-08-08T02:26:07.061Z,20.60
2018-08-08T02:28:35.375Z,20.60
2018-08-08T02:31:03.860Z,20.50
2018-08-08T02:33:32.288Z,20.50
2018-08-08T02:36:02.040Z,20.50
2018-08-08T02:38:30.709Z,20.50
2018-08-08T02:40:59.085Z,20.40
2018-08-08T02:43:27.509Z,20.40
2018-08-08T02:45:57.037Z,20.30
2018-08-08T02:48:25.553Z,20.30
2018-08-08T02:50:54.024Z,20.20
2018-08-08T02:53:22.553Z,20.10
2018-08-08T02:55:51.028Z,20.00
2018-08-08T02:58:19.440Z,20.00
2018-08-08T03:00:47.924Z,19.90
2018-08-08T03:03:16.335Z,19.90
2018-08-08T03:05:44.741Z,19.80
2018-08-08T03:08:13.124Z,19.80
2018-08-08T03:10:41.554Z,19.80
2018-08-08T03:13:10.038Z,19.90
2018-08-08T03:15:38.621Z,19.90
2018-08-08T03:18:08.172Z,19.80
2018-08-08T03:20:36.560Z,19.80
2018-08-08T03:23:04.945Z,19.80
2018-08-08T03:25:38.630Z,19.80
2018-08-08T03:28:07.089Z,19.80
2018-08-08T03:30:35.578Z,19.80
2018-08-08T03:33:04.213Z,19.80
2018-08-08T03:35:32.807Z,19.80
2018-08-08T03:38:01.178Z,19.80
2018-08-08T03:40:29.354Z,19.80
2018-08-08T03:42:57.796Z,19.80
2018-08-08T03:45:26.075Z,19.90
2018-08-08T03:47:54.579Z,19.80
2018-08-08T03:50:22.995Z,19.90
2018-08-08T03:52:51.585Z,19.80
2018-08-08T03:55:20.211Z,19.80
2018-08-08T03:57:48.624Z,19.80
2018-08-08T04:00:21.233Z,19.80
2018-08-08T04:02:50.048Z,19.80
2018-08-08T04:05:19.715Z,19.80
2018-08-08T04:07:48.068Z,19.80
2018-08-08T04:10:17.288Z,19.80
2018-08-08T04:12:45.734Z,19.70
2018-08-08T04:15:16.660Z,19.70
2018-08-08T04:17:45.082Z,19.70
2018-08-08T04:20:13.733Z,19.70
2018-08-08T04:22:42.201Z,19.70
2018-08-08T04:25:12.040Z,19.70
2018-08-08T04:27:40.859Z,19.80
2018-08-08T04:30:11.345Z,19.80
2018-08-08T04:32:40.345Z,19.90
2018-08-08T04:35:09.112Z,20.00
2018-08-08T04:37:37.865Z,20.00
2018-08-08T04:40:07.977Z,20.10
2018-08-08T04:42:36.134Z,20.10
2018-08-08T04:45:05.056Z,20.10
2018-08-08T04:47:33.374Z,20.20
2018-08-08T04:50:02.506Z,20.20
2018-08-08T04:52:30.762Z,20.30
2018-08-08T04:55:00.114Z,20.40
2018-08-08T04:57:28.590Z,20.40
2018-08-08T04:59:57.009Z,20.50
2018-08-08T05:02:25.467Z,20.50
2018-08-08T05:04:54.118Z,20.60
2018-08-08T05:07:22.606Z,20.60
2018-08-08T05:09:51.655Z,20.60
2018-08-08T05:12:21.018Z,20.70
2018-08-08T05:14:51.814Z,20.80
2018-08-08T05:17:20.738Z,20.90
2018-08-08T05:19:49.954Z,21.00
2018-08-08T05:22:20.685Z,21.10
2018-08-08T05:24:49.775Z,21.20
2018-08-08T05:27:19.020Z,21.40
2018-08-08T05:29:48.653Z,21.50
2018-08-08T05:32:17.836Z,21.50
2018-08-08T05:34:46.849Z,21.50
2018-08-08T05:37:15.438Z,21.60
2018-08-08T05:39:44.135Z,21.70
2018-08-08T05:42:13.749Z,21.80
2018-08-08T05:44:43.134Z,22.00
2018-08-08T05:47:12.228Z,22.20
2018-08-08T05:49:41.024Z,22.30
2018-08-08T05:52:10.592Z,22.60
2018-08-08T05:54:41.857Z,22.80
2018-08-08T05:57:10.945Z,23.00
2018-08-08T05:59:40.149Z,23.10
2018-08-08T06:02:08.820Z,23.20
2018-08-08T06:04:37.925Z,23.30
2018-08-08T06:07:07.496Z,23.40
2018-08-08T06:09:36.616Z,23.50
2018-08-08T06:12:05.340Z,23.60
2018-08-08T06:14:34.314Z,23.60
2018-08-08T06:17:03.325Z,23.80
2018-08-08T06:19:32.771Z,23.80
2018-08-08T06:22:02.173Z,23.80
2018-08-08T06:24:31.647Z,23.80
2018-08-08T06:27:00.449Z,23.80
2018-08-08T06:29:29.260Z,23.80
2018-08-08T06:32:02.934Z,23.80
2018-08-08T06:34:32.640Z,23.90
2018-08-08T06:37:01.659Z,23.90
2018-08-08T06:39:31.450Z,23.90
2018-08-08T06:42:01.316Z,23.90
2018-08-08T06:44:30.420Z,24.00
2018-08-08T06:46:59.545Z,24.20
2018-08-08T06:49:28.210Z,24.50
2018-08-08T06:51:57.498Z,25.90
2018-08-08T06:54:26.286Z,28.30
2018-08-08T06:56:55.384Z,30.90
2018-08-08T06:59:25.478Z,33.10
2018-08-08T07:01:54.738Z,35.10
2018-08-08T07:04:24.199Z,36.90
2018-08-08T07:06:53.073Z,38.40
2018-08-08T07:09:22.788Z,39.50
2018-08-08T07:11:54.039Z,40.20
2018-08-08T07:14:22.673Z,41.00
2018-08-08T07:16:52.860Z,41.80
2018-08-08T07:19:21.897Z,42.40
2018-08-08T07:21:50.912Z,43.00
2018-08-08T07:24:19.711Z,43.30
2018-08-08T07:26:48.913Z,43.50
2018-08-08T07:29:18.691Z,43.60
2018-08-08T07:31:47.698Z,43.80
2018-08-08T07:34:16.907Z,44.10
2018-08-08T07:36:46.142Z,44.30
2018-08-08T07:39:16.386Z,44.20
2018-08-08T07:41:45.406Z,44.30
2018-08-08T07:44:14.250Z,44.30
2018-08-08T07:46:43.639Z,44.50
2018-08-08T07:49:12.499Z,44.60
2018-08-08T07:51:41.361Z,44.50
2018-08-08T07:54:10.374Z,44.40
2018-08-08T07:56:39.712Z,44.10
2018-08-08T07:59:09.238Z,43.70
2018-08-08T08:01:38.859Z,43.30
2018-08-08T08:04:08.041Z,43.00
2018-08-08T08:06:37.660Z,43.20
2018-08-08T08:09:09.043Z,43.70
2018-08-08T08:11:38.014Z,43.70
2018-08-08T08:14:06.513Z,43.30
2018-08-08T08:16:35.626Z,43.40
2018-08-08T08:19:04.841Z,43.90
2018-08-08T08:21:34.305Z,44.40
2018-08-08T08:24:03.101Z,44.50
2018-08-08T08:26:32.295Z,44.60
2018-08-08T08:29:01.625Z,44.80
2018-08-08T08:31:30.887Z,45.10
2018-08-08T08:34:01.016Z,45.20
2018-08-08T08:36:29.791Z,44.90
2018-08-08T08:38:58.675Z,44.40
2018-08-08T08:41:27.448Z,43.70
2018-08-08T08:43:56.811Z,42.60
2018-08-08T08:46:25.631Z,41.40
2018-08-08T08:48:55.227Z,40.10
2018-08-08T08:51:25.368Z,39.20
2018-08-08T08:53:54.054Z,38.50
2018-08-08T08:56:23.734Z,37.80
2018-08-08T08:58:52.709Z,37.10
2018-08-08T09:01:21.619Z,36.80
2018-08-08T09:03:50.866Z,36.50
2018-08-08T09:06:22.311Z,36.20
2018-08-08T09:08:51.823Z,35.90
2018-08-08T09:11:21.640Z,35.70
2018-08-08T09:13:50.843Z,35.50
2018-08-08T09:16:20.290Z,35.40
2018-08-08T09:18:49.386Z,35.10
2018-08-08T09:21:20.064Z,34.80
2018-08-08T09:23:49.013Z,34.50
2018-08-08T09:26:19.018Z,34.20
2018-08-08T09:28:48.492Z,34.20
2018-08-08T09:31:17.612Z,34.10
2018-08-08T09:33:46.627Z,34.20
2018-08-08T09:36:16.671Z,34.20
2018-08-08T09:38:45.262Z,34.10
2018-08-08T09:41:14.440Z,34.00
2018-08-08T09:43:43.829Z,34.00
2018-08-08T09:46:12.619Z,33.90
2018-08-08T09:48:41.318Z,33.80
2018-08-08T09:51:10.569Z,33.80
2018-08-08T09:53:38.707Z,33.70
2018-08-08T09:56:07.893Z,33.70
2018-08-08T09:58:36.540Z,33.70
2018-08-08T10:01:11.056Z,33.80
2018-08-08T10:03:40.819Z,33.90
2018-08-08T10:06:10.561Z,33.90
2018-08-08T10:08:39.559Z,33.80
2018-08-08T10:11:08.859Z,33.80
2018-08-08T10:13:37.937Z,33.70
2018-08-08T10:16:07.625Z,33.80
2018-08-08T10:18:37.063Z,33.80
2018-08-08T10:21:05.978Z,33.80
2018-08-08T10:23:34.882Z,33.90
2018-08-08T10:26:07.800Z,34.00
2018-08-08T10:28:37.848Z,34.10
2018-08-08T10:31:07.438Z,34.20
2018-08-08T10:33:36.947Z,34.30
2018-08-08T10:36:06.585Z,34.40
2018-08-08T10:38:36.441Z,34.40
2018-08-08T10:41:05.109Z,34.40
2018-08-08T10:43:33.951Z,34.40
2018-08-08T10:46:02.554Z,34.40
2018-08-08T10:48:32.948Z,34.40
2018-08-08T10:51:01.663Z,34.40
2018-08-08T10:53:31.108Z,34.50
2018-08-08T10:56:00.130Z,34.50
2018-08-08T10:58:29.400Z,34.50
2018-08-08T11:00:58.061Z,34.40
2018-08-08T11:03:28.147Z,34.30
2018-08-08T11:05:59.007Z,34.30
2018-08-08T11:08:27.771Z,34.20
2018-08-08T11:10:56.338Z,34.20
2018-08-08T11:13:25.138Z,34.10
2018-08-08T11:15:53.860Z,34.10
2018-08-08T11:18:23.141Z,34.20
2018-08-08T11:20:52.099Z,34.30
2018-08-08T11:23:20.911Z,34.50
2018-08-08T11:25:49.901Z,34.60
2018-08-08T11:28:19.345Z,34.60
2018-08-08T11:30:49.164Z,34.70
2018-08-08T11:33:18.498Z,34.70
2018-08-08T11:35:48.233Z,34.60
2018-08-08T11:38:20.846Z,34.40
2018-08-08T11:40:49.937Z,34.10
2018-08-08T11:43:19.521Z,34.00
2018-08-08T11:45:49.238Z,33.90
2018-08-08T11:48:19.003Z,33.90
2018-08-08T11:50:48.411Z,34.00
2018-08-08T11:53:17.714Z,34.10
2018-08-08T11:55:46.889Z,34.30
2018-08-08T11:58:15.804Z,34.40
2018-08-08T12:00:45.996Z,34.50
2018-08-08T12:03:15.499Z,34.60
2018-08-08T12:05:45.215Z,34.60
2018-08-08T12:08:13.803Z,34.70
2018-08-08T12:10:42.799Z,34.70
2018-08-08T12:13:11.743Z,34.70
2018-08-08T12:15:40.546Z,34.70
2018-08-08T12:18:09.193Z,34.50
2018-08-08T12:20:37.931Z,34.30
2018-08-08T12:23:07.674Z,34.00
2018-08-08T12:25:36.303Z,33.80
2018-08-08T12:28:04.867Z,33.90
2018-08-08T12:30:33.046Z,34.00
2018-08-08T12:33:02.792Z,34.20
2018-08-08T12:35:31.431Z,34.40
2018-08-08T12:37:59.801Z,34.50
2018-08-08T12:40:28.436Z,34.70
2018-08-08T12:42:57.056Z,34.80
2018-08-08T12:45:25.508Z,34.80
2018-08-08T12:47:54.941Z,34.80
2018-08-08T12:50:23.389Z,34.80
2018-08-08T12:52:51.911Z,34.80
2018-08-08T12:55:20.348Z,34.70
2018-08-08T12:57:48.829Z,34.70
2018-08-08T13:00:17.217Z,34.50
2018-08-08T13:02:45.528Z,34.20
2018-08-08T13:05:13.934Z,33.80
2018-08-08T13:07:42.637Z,33.60
2018-08-08T13:10:11.124Z,33.20
2018-08-08T13:12:39.611Z,32.90
2018-08-08T13:15:08.903Z,32.50
2018-08-08T13:17:37.332Z,32.20
2018-08-08T13:20:06.567Z,31.90
2018-08-08T13:22:34.682Z,31.60
2018-08-08T13:25:03.354Z,31.30
2018-08-08T13:27:32.731Z,31.10
2018-08-08T13:30:02.070Z,30.80
2018-08-08T13:32:31.026Z,30.60
2018-08-08T13:34:59.983Z,30.40
2018-08-08T13:37:28.431Z,30.20
2018-08-08T13:39:57.453Z,29.90
2018-08-08T13:42:25.770Z,29.50
2018-08-08T13:44:54.706Z,29.10
2018-08-08T13:47:23.058Z,28.60
2018-08-08T13:49:51.411Z,28.30
2018-08-08T13:52:19.947Z,28.00
2018-08-08T13:54:48.415Z,27.70
2018-08-08T13:57:16.963Z,27.50
2018-08-08T13:59:45.593Z,27.40
2018-08-08T14:02:13.887Z,27.30
2018-08-08T14:04:42.788Z,27.20
2018-08-08T14:07:11.194Z,27.20
2018-08-08T14:09:39.850Z,27.00
2018-08-08T14:12:08.604Z,26.80
2018-08-08T14:14:37.677Z,26.70
2018-08-08T14:17:06.321Z,26.60
2018-08-08T14:19:34.601Z,26.40
2018-08-08T14:22:04.016Z,26.40
2018-08-08T14:24:32.308Z,26.20
2018-08-08T14:27:00.722Z,26.10
2018-08-08T14:29:29.675Z,26.10
2018-08-08T14:31:57.947Z,26.10
2018-08-08T14:34:26.553Z,26.20
2018-08-08T14:36:54.832Z,26.20
2018-08-08T14:39:23.243Z,26.20
2018-08-08T14:41:51.634Z,26.30
2018-08-08T14:44:20.034Z,26.30
2018-08-08T14:46:50.376Z,26.30
2018-08-08T14:49:18.981Z,26.20
2018-08-08T14:51:47.461Z,26.20
2018-08-08T14:54:15.633Z,26.10
2018-08-08T14:56:43.747Z,26.10
2018-08-08T14:59:12.368Z,26.00
2018-08-08T15:01:40.773Z,25.90
2018-08-08T15:04:09.320Z,25.90
2018-08-08T15:06:37.698Z,25.80
2018-08-08T15:09:09.527Z,25.70
2018-08-08T15:11:38.070Z,25.70
2018-08-08T15:14:06.359Z,25.70
2018-08-08T15:16:34.649Z,25.70
2018-08-08T15:19:03.470Z,25.80
2018-08-08T15:21:31.884Z,25.80
2018-08-08T15:24:00.183Z,25.80
2018-08-08T15:26:28.575Z,25.70
2018-08-08T15:28:56.950Z,25.70
2018-08-08T15:31:25.559Z,25.70
2018-08-08T15:33:54.437Z,25.80
2018-08-08T15:36:22.905Z,25.80
2018-08-08T15:38:51.268Z,25.90
2018-08-08T15:41:19.782Z,26.00
2018-08-08T15:43:48.089Z,26.00
2018-08-08T15:46:16.554Z,26.10
2018-08-08T15:48:45.202Z,26.20
2018-08-08T15:51:13.714Z,26.30
2018-08-08T15:53:42.112Z,26.40
2018-08-08T15:56:10.462Z,26.40
2018-08-08T15:58:38.903Z,26.50
2018-08-08T16:01:07.603Z,26.60
2018-08-08T16:03:36.003Z,26.60
2018-08-08T16:06:04.377Z,26.80
2018-08-08T16:08:32.819Z,26.80
2018-08-08T16:11:01.282Z,26.90
2018-08-08T16:13:29.654Z,27.00
2018-08-08T16:15:58.303Z,27.10
2018-08-08T16:18:26.702Z,27.20
2018-08-08T16:20:55.069Z,27.40
2018-08-08T16:23:23.810Z,27.50
2018-08-08T16:25:54.343Z,27.70
2018-08-08T16:28:22.754Z,27.80
2018-08-08T16:30:51.017Z,28.00
2018-08-08T16:33:19.353Z,28.10
2018-08-08T16:35:47.656Z,28.20
2018-08-08T16:38:16.127Z,28.30
2018-08-08T16:40:44.936Z,28.30
2018-08-08T16:43:14.892Z,28.40
2018-08-08T16:45:43.493Z,28.40
2018-08-08T16:48:12.015Z,28.40
2018-08-08T16:50:41.416Z,28.40
2018-08-08T16:53:09.811Z,28.30
2018-08-08T16:55:38.370Z,28.30
2018-08-08T16:58:06.726Z,28.20
2018-08-08T17:00:35.232Z,28.20
2018-08-08T17:03:03.717Z,28.20
2018-08-08T17:05:32.424Z,28.10
2018-08-08T17:08:00.903Z,28.00
2018-08-08T17:10:29.449Z,28.00
2018-08-08T17:12:59.056Z,28.00
2018-08-08T17:15:27.552Z,27.90
2018-08-08T17:17:56.089Z,27.90
2018-08-08T17:20:24.426Z,27.90
2018-08-08T17:22:52.965Z,27.80
2018-08-08T17:25:21.575Z,27.80
2018-08-08T17:27:49.992Z,27.70
2018-08-08T17:30:20.909Z,27.70
2018-08-08T17:32:49.226Z,27.70
2018-08-08T17:35:18.166Z,27.60
2018-08-08T17:37:46.627Z,27.60
2018-08-08T17:40:15.226Z,27.50
2018-08-08T17:42:43.696Z,27.40
2018-08-08T17:45:12.161Z,27.30
2018-08-08T17:47:44.256Z,27.20
2018-08-08T17:50:12.827Z,27.10
2018-08-08T17:52:41.348Z,27.00
2018-08-08T17:55:11.207Z,26.90
2018-08-08T17:57:40.189Z,26.80
2018-08-08T18:00:09.502Z,26.80
2018-08-08T18:02:42.285Z,26.70
2018-08-08T18:05:10.936Z,26.60
2018-08-08T18:07:39.511Z,26.50
2018-08-08T18:10:08.777Z,26.40
2018-08-08T18:12:38.859Z,26.30
2018-08-08T18:15:08.444Z,26.20
2018-08-08T18:17:37.041Z,26.10
2018-08-08T18:21:09.215Z,26.10
2018-08-08T18:23:38.015Z,25.90
2018-08-08T18:26:06.490Z,25.80
2018-08-08T18:28:35.357Z,25.70
2018-08-08T18:31:04.838Z,25.50
2018-08-08T18:33:33.805Z,25.40
2018-08-08T18:36:02.884Z,25.30
2018-08-08T18:38:36.961Z,25.20
2018-08-08T18:41:07.280Z,25.10
2018-08-08T18:43:36.439Z,24.90
2018-08-08T18:46:05.048Z,24.80
2018-08-08T18:48:34.581Z,24.70
2018-08-08T18:51:03.089Z,24.50
2018-08-08T18:53:31.601Z,24.40
2018-08-08T18:56:00.070Z,24.30
2018-08-08T18:58:29.512Z,24.20
2018-08-08T19:00:57.916Z,24.00
2018-08-08T19:03:26.398Z,24.00
2018-08-08T19:05:54.604Z,23.90
2018-08-08T19:08:26.692Z,23.70
2018-08-08T19:10:54.998Z,23.70
2018-08-08T19:13:23.377Z,23.50
2018-08-08T19:15:58.452Z,23.50
2018-08-08T19:18:26.839Z,23.40
2018-08-08T19:20:55.556Z,23.30
2018-08-08T19:23:23.932Z,23.30
2018-08-08T19:25:59.312Z,23.20
2018-08-08T19:28:28.432Z,23.10
2018-08-08T19:30:57.135Z,23.00
2018-08-08T19:33:26.109Z,23.00
2018-08-08T19:35:54.446Z,22.90
2018-08-08T19:38:22.951Z,22.90
2018-08-08T19:40:51.525Z,22.80
2018-08-08T19:43:21.070Z,22.80
2018-08-08T19:45:49.463Z,22.70
2018-08-08T19:48:17.978Z,22.70
2018-08-08T19:50:51.387Z,22.60
2018-08-08T19:53:20.457Z,22.50
2018-08-08T19:55:49.013Z,22.40
2018-08-08T19:58:17.493Z,22.40
2018-08-08T20:00:47.181Z,22.30
2018-08-08T20:03:15.844Z,22.30
2018-08-08T20:05:45.872Z,22.20
2018-08-08T20:08:32.802Z,22.20
2018-08-08T20:11:01.276Z,22.20
2018-08-08T20:13:30.318Z,22.10
2018-08-08T20:15:59.763Z,22.10
2018-08-08T20:18:31.599Z,22.00
2018-08-08T20:21:02.177Z,22.00
2018-08-08T20:23:33.068Z,22.00
2018-08-08T20:26:02.472Z,22.00
2018-08-08T20:28:31.054Z,22.00
2018-08-08T20:30:59.844Z,22.00
2018-08-08T20:33:28.330Z,22.10
2018-08-08T20:35:57.592Z,22.10
2018-08-08T20:38:26.373Z,22.10
2018-08-08T20:40:55.382Z,22.20
2018-08-08T20:43:23.987Z,22.20
2018-08-08T20:45:52.589Z,22.20
2018-08-08T20:48:20.910Z,22.20
2018-08-08T20:50:49.493Z,22.30
2018-08-08T20:53:17.878Z,22.30
2018-08-08T20:55:50.234Z,22.30
2018-08-08T20:58:19.312Z,22.30
2018-08-08T21:00:47.890Z,22.30
2018-08-08T21:03:17.218Z,22.30
2018-08-08T21:05:50.487Z,22.40
2018-08-08T21:08:18.919Z,22.40
2018-08-08T21:10:47.440Z,22.40
2018-08-08T21:13:17.730Z,22.40
2018-08-08T21:15:46.076Z,22.40
2018-08-08T21:18:14.482Z,22.40
2018-08-08T21:20:43.396Z,22.40
2018-08-08T21:23:12.548Z,22.40
2018-08-08T21:25:41.292Z,22.40
2018-08-08T21:28:09.821Z,22.40
2018-08-08T21:30:38.450Z,22.40
2018-08-08T21:33:14.995Z,22.40
2018-08-08T21:35:43.308Z,22.40
2018-08-08T21:38:11.903Z,22.40
2018-08-08T21:40:40.270Z,22.40
2018-08-08T21:43:09.704Z,22.30
2018-08-08T21:45:38.005Z,22.30
2018-08-08T21:48:06.728Z,22.30
2018-08-08T21:50:35.119Z,22.30
2018-08-08T21:53:13.653Z,22.30
2018-08-08T21:55:53.088Z,22.30
2018-08-08T21:58:32.538Z,22.30
2018-08-08T22:01:13.688Z,22.20
2018-08-08T22:03:53.871Z,22.20
2018-08-08T22:06:34.938Z,22.10
2018-08-08T22:09:14.337Z,22.10
2018-08-08T22:12:55.625Z,22.10
2018-08-08T22:15:36.058Z,22.10
2018-08-08T22:19:18.546Z,22.10
2018-08-08T22:21:47.570Z,22.10
2018-08-08T22:24:16.243Z,22.10
2018-08-08T22:26:44.652Z,22.00
2018-08-08T22:29:13.095Z,22.00
2018-08-08T22:31:41.666Z,22.00
2018-08-08T22:34:09.826Z,22.00
2018-08-08T22:36:37.926Z,22.00
2018-08-08T22:39:09.940Z,22.00
2018-08-08T22:41:38.432Z,22.00
2018-08-08T22:44:07.139Z,21.90
2018-08-08T22:46:35.756Z,21.90
2018-08-08T22:49:35.113Z,21.90
2018-08-08T22:52:03.728Z,21.90
2018-08-08T22:54:32.345Z,21.80
2018-08-08T22:57:00.712Z,21.70
2018-08-08T22:59:29.151Z,21.70
2018-08-08T23:01:57.758Z,21.60
2018-08-08T23:04:26.358Z,21.50
2018-08-08T23:06:54.840Z,21.50
2018-08-08T23:09:23.359Z,21.40
2018-08-08T23:11:51.741Z,21.30
2018-08-08T23:14:20.253Z,21.20
2018-08-08T23:16:48.835Z,21.20
2018-08-08T23:19:17.230Z,21.10
2018-08-08T23:21:45.420Z,21.10
2018-08-08T23:24:13.554Z,21.10
2018-08-08T23:26:41.949Z,21.00
2018-08-08T23:29:10.455Z,21.00
2018-08-08T23:31:39.861Z,20.90
2018-08-08T23:34:08.377Z,20.90
2018-08-08T23:36:36.783Z,20.90
2018-08-08T23:39:07.379Z,20.80
2018-08-08T23:41:37.152Z,20.80
2018-08-08T23:44:06.094Z,20.80
2018-08-08T23:46:34.434Z,20.70
2018-08-08T23:49:02.739Z,20.70
2018-08-08T23:51:30.913Z,20.70
2018-08-08T23:53:59.052Z,20.70
2018-08-08T23:56:27.544Z,20.60
2018-08-08T23:58:56.057Z,20.60
